GMTN/TTU METAR and TAF weather

Enter ICAO airport designator
Station Type Date Time Source
GMTN METAR 2018/04/20 08:00 UTC NOAA

GMTN 200800Z 09018KT 6000 OVC016 16/12 Q1016 NOSIG


Station Type Date Time Source
GMTN Decoded METAR 2018/04/20 08:00 UTC NOAA

Tetuan / Sania Ramel, Morocco (GMTN) 35-35N 005-20W 10M
Apr 20, 2018 - 04:00 AM EDT / 2018.04.20 0800 UTC
Wind: from the E (090 degrees) at 21 MPH (18 KT):0
Visibility: 3 mile(s):0
Sky conditions: overcast
Temperature: 60 F (16 C)
Dew Point: 53 F (12 C)
Relative Humidity: 77%
Pressure (altimeter): 30.00 in. Hg (1016 hPa)
ob: GMTN 200800Z 09018KT 6000 OVC016 16/12 Q1016 NOSIG
cycle: 8

Station Type Date Time Source
GMTN TAF UTC NOAA

Error!


Example: see airport list